Time,TemperatureF,DewpointF,PressureIn,WindDirection,WindDirectionDegrees,WindSpeedMPH,WindSpeedGustMPH,Humidity,HourlyPrecipIn,Conditions,Clouds,dailyrainin,SoftwareType,DateUTC
2013-03-11 00:00:00,34.4,31.8,30.27,ESE,114,0.0,0.0,90,0.00,,,0.00,Wunderground v.1.15,2013-03-11 04:00:00,
2013-03-11 00:05:00,34.4,31.8,30.27,ESE,114,0.0,0.0,90,0.00,,,0.00,Wunderground v.1.15,2013-03-11 04:05:00,
2013-03-11 00:10:00,34.4,32.0,30.26,ESE,114,0.0,0.0,91,0.00,,,0.00,Wunderground v.1.15,2013-03-11 04:10:00,
2013-03-11 00:20:00,34.3,31.9,30.26,ESE,114,0.0,0.0,91,0.00,,,0.00,Wunderground v.1.15,2013-03-11 04:20:00,
2013-03-11 00:25:00,34.2,31.8,30.25,ESE,114,0.0,0.0,91,0.00,,,0.00,Wunderground v.1.15,2013-03-11 04:25:00,
2013-03-11 00:30:00,34.2,31.8,30.26,ESE,114,0.0,0.0,91,0.00,,,0.00,Wunderground v.1.15,2013-03-11 04:30:00,
2013-03-11 00:40:00,34.2,31.8,30.26,ESE,114,0.0,0.0,91,0.00,,,0.00,Wunderground v.1.15,2013-03-11 04:40:00,
2013-03-11 00:45:00,34.3,32.2,30.26,ESE,114,0.0,2.0,92,0.00,,,0.00,Wunderground v.1.15,2013-03-11 04:45:00,
2013-03-11 00:55:00,34.4,32.3,30.26,ESE,113,0.0,0.0,92,0.00,,,0.00,Wunderground v.1.15,2013-03-11 04:55:00,
2013-03-11 01:00:00,34.6,32.5,30.26,ESE,114,0.0,0.0,92,0.00,,,0.00,Wunderground v.1.15,2013-03-11 05:00:00,
2013-03-11 01:05:00,34.8,32.7,30.26,ESE,114,0.0,0.0,92,0.00,,,0.00,Wunderground v.1.15,2013-03-11 05:05:00,
2013-03-11 01:10:00,34.9,32.8,30.26,ESE,114,0.0,0.0,92,0.00,,,0.00,Wunderground v.1.15,2013-03-11 05:10:00,
2013-03-11 01:15:00,34.9,32.8,30.25,ESE,114,0.0,0.0,92,0.00,,,0.00,Wunderground v.1.15,2013-03-11 05:15:00,
2013-03-11 01:20:00,35.0,32.9,30.26,ESE,113,0.0,0.0,92,0.00,,,0.00,Wunderground v.1.15,2013-03-11 05:20:00,
2013-03-11 01:25:00,35.0,32.9,30.26,ESE,114,0.0,0.0,92,0.00,,,0.00,Wunderground v.1.15,2013-03-11 05:25:00,
2013-03-11 01:30:00,35.0,32.9,30.27,ESE,114,0.0,0.0,92,0.00,,,0.00,Wunderground v.1.15,2013-03-11 05:30:00,
2013-03-11 01:35:00,35.1,33.0,30.27,ESE,114,0.0,0.0,92,0.00,,,0.00,Wunderground v.1.15,2013-03-11 05:35:00,
2013-03-11 01:40:00,35.2,32.8,30.27,ESE,114,0.0,0.0,91,0.00,,,0.00,Wunderground v.1.15,2013-03-11 05:40:00,
2013-03-11 01:50:00,35.2,32.8,30.28,ESE,114,0.0,0.0,91,0.00,,,0.00,Wunderground v.1.15,2013-03-11 05:50:00,
2013-03-11 02:00:00,35.2,32.8,30.28,ESE,114,0.0,0.0,91,0.00,,,0.00,Wunderground v.1.15,2013-03-11 06:00:00,
2013-03-11 02:05:00,35.2,32.8,30.28,ESE,114,0.0,0.0,91,0.00,,,0.00,Wunderground v.1.15,2013-03-11 06:05:00,
2013-03-11 02:10:00,35.1,32.7,30.27,ESE,114,0.0,0.0,91,0.00,,,0.00,Wunderground v.1.15,2013-03-11 06:10:00,
2013-03-11 02:15:00,35.1,32.7,30.27,ESE,114,0.0,0.0,91,0.00,,,0.00,Wunderground v.1.15,2013-03-11 06:15:00,
2013-03-11 02:20:00,35.0,32.6,30.27,ESE,114,0.0,0.0,91,0.00,,,0.00,Wunderground v.1.15,2013-03-11 06:20:00,
2013-03-11 02:25:00,34.9,32.5,30.27,ESE,114,0.0,0.0,91,0.00,,,0.00,Wunderground v.1.15,2013-03-11 06:25:00,
2013-03-11 02:30:00,34.8,32.4,30.27,ESE,114,0.0,0.0,91,0.00,,,0.00,Wunderground v.1.15,2013-03-11 06:30:00,
2013-03-11 02:35:00,34.6,32.2,30.27,ESE,114,0.0,0.0,91,0.00,,,0.00,Wunderground v.1.15,2013-03-11 06:35:00,
2013-03-11 02:40:00,34.4,32.0,30.26,ESE,114,0.0,0.0,91,0.00,,,0.00,Wunderground v.1.15,2013-03-11 06:40:00,
2013-03-11 02:45:00,34.4,32.3,30.26,ESE,114,0.0,0.0,92,0.00,,,0.00,Wunderground v.1.15,2013-03-11 06:45:00,
2013-03-11 02:55:00,34.4,32.3,30.25,ESE,114,0.0,0.0,92,0.00,,,0.00,Wunderground v.1.15,2013-03-11 06:55:00,
2013-03-11 03:00:00,34.4,32.3,30.25,ESE,114,0.0,0.0,92,0.00,,,0.00,Wunderground v.1.15,2013-03-11 07:00:00,
2013-03-11 03:05:00,34.4,32.3,30.25,ESE,114,0.0,0.0,92,0.00,,,0.00,Wunderground v.1.15,2013-03-11 07:05:00,
2013-03-11 03:15:00,34.2,32.1,30.24,ESE,114,0.0,0.0,92,0.00,,,0.00,Wunderground v.1.15,2013-03-11 07:15:00,
2013-03-11 03:20:00,34.0,31.9,30.23,ESE,114,0.0,0.0,92,0.00,,,0.00,Wunderground v.1.15,2013-03-11 07:20:00,
2013-03-11 03:25:00,34.0,31.9,30.23,ESE,114,0.0,0.0,92,0.00,,,0.00,Wunderground v.1.15,2013-03-11 07:25:00,
2013-03-11 03:30:00,33.9,31.8,30.22,ESE,114,0.0,0.0,92,0.00,,,0.00,Wunderground v.1.15,2013-03-11 07:30:00,
2013-03-11 03:35:00,33.8,32.0,30.22,ESE,113,0.0,0.0,93,0.00,,,0.00,Wunderground v.1.15,2013-03-11 07:35:00,
2013-03-11 03:40:00,33.7,31.9,30.22,ESE,114,0.0,0.0,93,0.00,,,0.00,Wunderground v.1.15,2013-03-11 07:40:00,
2013-03-11 03:45:00,33.7,31.9,30.22,ESE,114,0.0,0.0,93,0.00,,,0.00,Wunderground v.1.15,2013-03-11 07:45:00,
2013-03-11 03:50:00,33.8,32.0,30.22,ESE,114,0.0,0.0,93,0.00,,,0.00,Wunderground v.1.15,2013-03-11 07:50:00,
2013-03-11 03:55:00,33.8,32.0,30.21,ESE,114,0.0,0.0,93,0.00,,,0.00,Wunderground v.1.15,2013-03-11 07:55:00,
2013-03-11 04:00:00,33.9,32.1,30.22,ESE,114,0.0,0.0,93,0.00,,,0.00,Wunderground v.1.15,2013-03-11 08:00:00,
2013-03-11 04:05:00,33.9,32.1,30.22,ESE,114,0.0,0.0,93,0.00,,,0.00,Wunderground v.1.15,2013-03-11 08:05:00,
2013-03-11 04:15:00,34.1,32.3,30.22,ESE,114,0.0,0.0,93,0.00,,,0.00,Wunderground v.1.15,2013-03-11 08:15:00,
2013-03-11 04:20:00,34.2,32.7,30.22,ESE,114,0.0,0.0,94,0.00,,,0.00,Wunderground v.1.15,2013-03-11 08:20:00,
2013-03-11 04:25:00,34.4,32.9,30.22,ESE,114,0.0,1.0,94,0.00,,,0.00,Wunderground v.1.15,2013-03-11 08:25:00,
2013-03-11 04:35:00,34.4,32.9,30.22,ESE,114,0.0,0.0,94,0.00,,,0.00,Wunderground v.1.15,2013-03-11 08:35:00,
2013-03-11 04:40:00,34.5,33.0,30.22,ESE,114,0.0,0.0,94,0.00,,,0.00,Wunderground v.1.15,2013-03-11 08:40:00,
2013-03-11 04:45:00,34.6,32.8,30.22,ESE,114,0.0,0.0,93,0.00,,,0.00,Wunderground v.1.15,2013-03-11 08:45:00,
2013-03-11 04:50:00,34.6,32.8,30.22,ESE,114,0.0,0.0,93,0.00,,,0.00,Wunderground v.1.15,2013-03-11 08:50:00,
2013-03-11 04:55:00,34.7,32.9,30.21,ESE,114,0.0,0.0,93,0.00,,,0.00,Wunderground v.1.15,2013-03-11 08:55:00,
2013-03-11 05:05:00,34.7,32.9,30.22,ESE,114,0.0,0.0,93,0.00,,,0.00,Wunderground v.1.15,2013-03-11 09:05:00,
2013-03-11 05:10:00,34.7,32.9,30.21,ESE,114,0.0,0.0,93,0.00,,,0.00,Wunderground v.1.15,2013-03-11 09:10:00,
2013-03-11 05:15:00,34.7,32.9,30.21,ESE,114,0.0,0.0,93,0.00,,,0.00,Wunderground v.1.15,2013-03-11 09:15:00,
2013-03-11 05:20:00,34.7,32.9,30.21,ESE,114,0.0,0.0,93,0.00,,,0.00,Wunderground v.1.15,2013-03-11 09:20:00,
2013-03-11 05:25:00,34.7,32.9,30.20,ESE,114,0.0,0.0,93,0.00,,,0.00,Wunderground v.1.15,2013-03-11 09:25:00,
2013-03-11 05:30:00,34.6,32.8,30.20,ESE,114,0.0,0.0,93,0.00,,,0.00,Wunderground v.1.15,2013-03-11 09:30:00,
2013-03-11 05:35:00,34.6,32.8,30.20,ESE,114,0.0,0.0,93,0.00,,,0.00,Wunderground v.1.15,2013-03-11 09:35:00,
2013-03-11 05:40:00,34.5,32.7,30.19,ESE,114,0.0,0.0,93,0.00,,,0.00,Wunderground v.1.15,2013-03-11 09:40:00,
2013-03-11 05:45:00,34.5,32.7,30.19,ESE,114,0.0,0.0,93,0.00,,,0.00,Wunderground v.1.15,2013-03-11 09:45:00,
2013-03-11 05:50:00,34.4,32.6,30.19,ESE,114,0.0,0.0,93,0.00,,,0.00,Wunderground v.1.15,2013-03-11 09:50:00,
2013-03-11 05:55:00,34.4,32.6,30.19,ESE,114,0.0,0.0,93,0.00,,,0.00,Wunderground v.1.15,2013-03-11 09:55:00,
2013-03-11 06:00:00,34.4,32.6,30.19,ESE,114,0.0,0.0,93,0.00,,,0.00,Wunderground v.1.15,2013-03-11 10:00:00,
2013-03-11 06:10:00,34.4,32.6,30.20,ESE,114,0.0,0.0,93,0.00,,,0.00,Wunderground v.1.15,2013-03-11 10:10:00,
2013-03-11 06:15:00,34.4,32.6,30.20,ESE,114,0.0,0.0,93,0.00,,,0.00,Wunderground v.1.15,2013-03-11 10:15:00,
2013-03-11 06:20:00,34.4,32.6,30.20,ESE,114,0.0,0.0,93,0.00,,,0.00,Wunderground v.1.15,2013-03-11 10:20:00,
2013-03-11 06:25:00,34.4,32.6,30.20,ESE,114,0.0,0.0,93,0.00,,,0.00,Wunderground v.1.15,2013-03-11 10:25:00,
2013-03-11 06:30:00,34.4,32.6,30.21,ESE,114,0.0,0.0,93,0.00,,,0.00,Wunderground v.1.15,2013-03-11 10:30:00,
2013-03-11 06:35:00,34.4,32.6,30.21,ESE,114,0.0,0.0,93,0.00,,,0.00,Wunderground v.1.15,2013-03-11 10:35:00,
2013-03-11 06:40:00,34.4,32.6,30.22,ESE,114,0.0,0.0,93,0.00,,,0.00,Wunderground v.1.15,2013-03-11 10:40:00,
2013-03-11 06:45:00,34.4,32.6,30.22,ESE,114,0.0,0.0,93,0.00,,,0.00,Wunderground v.1.15,2013-03-11 10:45:00,
2013-03-11 07:05:00,34.4,32.6,30.21,ESE,114,0.0,0.0,93,0.00,,,0.00,Wunderground v.1.15,2013-03-11 11:05:00,
2013-03-11 07:10:00,34.4,32.6,30.21,ESE,114,0.0,0.0,93,0.00,,,0.00,Wunderground v.1.15,2013-03-11 11:10:00,
2013-03-11 07:15:00,34.4,32.6,30.21,ESE,114,0.0,0.0,93,0.00,,,0.00,Wunderground v.1.15,2013-03-11 11:15:00,
2013-03-11 07:25:00,34.4,32.6,30.21,ESE,114,0.0,0.0,93,0.00,,,0.00,Wunderground v.1.15,2013-03-11 11:25:00,
2013-03-11 07:30:00,34.4,32.6,30.21,ESE,114,0.0,0.0,93,0.00,,,0.00,Wunderground v.1.15,2013-03-11 11:30:00,
2013-03-11 07:35:00,34.4,32.6,30.20,ESE,114,0.0,0.0,93,0.00,,,0.00,Wunderground v.1.15,2013-03-11 11:35:00,
2013-03-11 07:40:00,34.4,32.6,30.20,ESE,114,0.0,0.0,93,0.00,,,0.00,Wunderground v.1.15,2013-03-11 11:40:00,
2013-03-11 07:45:00,34.4,32.6,30.20,ESE,114,0.0,0.0,93,0.00,,,0.00,Wunderground v.1.15,2013-03-11 11:45:00,
2013-03-11 07:50:00,34.4,32.6,30.20,ESE,114,0.0,0.0,93,0.00,,,0.00,Wunderground v.1.15,2013-03-11 11:50:00,
2013-03-11 07:55:00,34.4,32.6,30.21,ESE,114,0.0,0.0,93,0.00,,,0.00,Wunderground v.1.15,2013-03-11 11:55:00,
2013-03-11 08:00:00,34.5,32.7,30.20,ESE,114,0.0,0.0,93,0.00,,,0.00,Wunderground v.1.15,2013-03-11 12:00:00,
2013-03-11 08:10:00,34.7,32.6,30.21,ESE,114,0.0,0.0,92,0.00,,,0.00,Wunderground v.1.15,2013-03-11 12:10:00,
2013-03-11 08:20:00,35.0,33.2,30.21,ESE,114,0.0,0.0,93,0.00,,,0.00,Wunderground v.1.15,2013-03-11 12:20:00,
2013-03-11 08:25:00,35.2,33.1,30.21,ESE,114,0.0,0.0,92,0.00,,,0.00,Wunderground v.1.15,2013-03-11 12:25:00,
2013-03-11 08:30:00,35.5,33.4,30.21,ESE,114,0.0,1.0,92,0.00,,,0.00,Wunderground v.1.15,2013-03-11 12:30:00,
2013-03-11 08:35:00,35.7,33.6,30.21,ESE,114,0.0,1.0,92,0.00,,,0.00,Wunderground v.1.15,2013-03-11 12:35:00,
2013-03-11 08:40:00,35.8,33.7,30.21,ESE,114,0.0,0.0,92,0.00,,,0.00,Wunderground v.1.15,2013-03-11 12:40:00,
2013-03-11 08:45:00,36.0,33.6,30.21,ESE,114,0.0,0.0,91,0.00,,,0.00,Wunderground v.1.15,2013-03-11 12:45:00,
2013-03-11 08:50:00,36.1,33.7,30.21,ESE,114,0.0,0.0,91,0.00,,,0.00,Wunderground v.1.15,2013-03-11 12:50:00,
2013-03-11 08:55:00,36.2,33.8,30.20,ESE,114,0.0,0.0,91,0.00,,,0.00,Wunderground v.1.15,2013-03-11 12:55:00,
2013-03-11 09:05:00,36.2,33.5,30.20,ESE,114,0.0,0.0,90,0.00,,,0.00,Wunderground v.1.15,2013-03-11 13:05:00,
2013-03-11 09:10:00,36.3,33.6,30.20,ESE,114,0.0,0.0,90,0.00,,,0.00,Wunderground v.1.15,2013-03-11 13:10:00,
2013-03-11 09:15:00,36.4,33.7,30.20,ESE,114,0.0,0.0,90,0.00,,,0.00,Wunderground v.1.15,2013-03-11 13:15:00,
2013-03-11 09:25:00,37.4,34.5,30.20,ESE,114,0.0,0.0,89,0.00,,,0.00,Wunderground v.1.15,2013-03-11 13:25:00,
2013-03-11 09:30:00,38.3,35.3,30.20,ESE,114,0.0,0.0,89,0.00,,,0.00,Wunderground v.1.15,2013-03-11 13:30:00,
2013-03-11 09:35:00,39.2,35.9,30.20,ESE,114,0.0,1.0,88,0.00,,,0.00,Wunderground v.1.15,2013-03-11 13:35:00,
2013-03-11 09:40:00,39.9,36.1,30.20,ESE,114,0.0,0.0,86,0.00,,,0.00,Wunderground v.1.15,2013-03-11 13:40:00,
2013-03-11 09:45:00,40.4,36.2,30.20,ESE,114,0.0,0.0,85,0.00,,,0.00,Wunderground v.1.15,2013-03-11 13:45:00,
2013-03-11 09:50:00,40.6,36.1,30.20,ESE,114,0.0,0.0,84,0.00,,,0.00,Wunderground v.1.15,2013-03-11 13:50:00,
2013-03-11 09:55:00,41.1,36.3,30.20,ESE,114,0.0,0.0,83,0.00,,,0.00,Wunderground v.1.15,2013-03-11 13:55:00,
2013-03-11 10:00:00,41.5,36.1,30.19,ESE,114,1.0,1.0,81,0.00,,,0.00,Wunderground v.1.15,2013-03-11 14:00:00,
2013-03-11 10:05:00,41.7,36.0,30.20,ESE,119,1.0,1.0,80,0.00,,,0.00,Wunderground v.1.15,2013-03-11 14:05:00,
2013-03-11 10:15:00,42.3,36.3,30.20,ESE,119,0.0,1.0,79,0.00,,,0.00,Wunderground v.1.15,2013-03-11 14:15:00,
2013-03-11 10:25:00,43.2,36.8,30.19,ESE,119,0.0,1.0,78,0.00,,,0.00,Wunderground v.1.15,2013-03-11 14:25:00,
2013-03-11 10:35:00,44.2,37.1,30.19,ESE,119,0.0,0.0,76,0.00,,,0.00,Wunderground v.1.15,2013-03-11 14:35:00,
2013-03-11 10:40:00,44.3,36.5,30.19,ESE,119,1.0,2.0,74,0.00,,,0.00,Wunderground v.1.15,2013-03-11 14:40:00,
2013-03-11 10:45:00,44.4,36.6,30.19,ESE,119,1.0,2.0,74,0.00,,,0.00,Wunderground v.1.15,2013-03-11 14:45:00,
2013-03-11 10:50:00,44.8,37.0,30.19,ESE,119,0.0,0.0,74,0.00,,,0.00,Wunderground v.1.15,2013-03-11 14:50:00,
2013-03-11 10:55:00,44.9,36.4,30.19,ESE,119,0.0,0.0,72,0.00,,,0.00,Wunderground v.1.15,2013-03-11 14:55:00,
2013-03-11 11:00:00,45.2,37.1,30.19,ESE,119,0.0,2.0,73,0.00,,,0.00,Wunderground v.1.15,2013-03-11 15:00:00,
2013-03-11 11:05:00,45.7,37.2,30.19,ESE,119,0.0,2.0,72,0.00,,,0.00,Wunderground v.1.15,2013-03-11 15:05:00,
2013-03-11 11:10:00,46.3,37.4,30.19,ESE,119,0.0,0.0,71,0.00,,,0.00,Wunderground v.1.15,2013-03-11 15:10:00,
2013-03-11 11:15:00,47.1,37.8,30.19,ESE,119,0.0,0.0,70,0.00,,,0.00,Wunderground v.1.15,2013-03-11 15:15:00,
2013-03-11 11:20:00,47.8,37.4,30.19,ESE,119,0.0,0.0,67,0.00,,,0.00,Wunderground v.1.15,2013-03-11 15:20:00,
2013-03-11 11:30:00,47.8,37.4,30.20,ESE,119,0.0,0.0,67,0.00,,,0.00,Wunderground v.1.15,2013-03-11 15:30:00,
2013-03-11 11:40:00,47.3,36.5,30.19,ESE,119,0.0,1.0,66,0.00,,,0.00,Wunderground v.1.15,2013-03-11 15:40:00,
2013-03-11 11:45:00,47.3,36.9,30.19,ESE,119,0.0,1.0,67,0.00,,,0.00,Wunderground v.1.15,2013-03-11 15:45:00,
2013-03-11 11:50:00,47.6,36.8,30.19,ESE,119,0.0,1.0,66,0.00,,,0.00,Wunderground v.1.15,2013-03-11 15:50:00,
2013-03-11 11:55:00,47.8,37.0,30.18,ESE,119,0.0,1.0,66,0.00,,,0.00,Wunderground v.1.15,2013-03-11 15:55:00,
2013-03-11 12:00:00,47.8,37.0,30.18,ESE,119,0.0,0.0,66,0.00,,,0.00,Wunderground v.1.15,2013-03-11 16:00:00,
2013-03-11 12:05:00,47.8,37.0,30.18,ESE,119,0.0,0.0,66,0.00,,,0.00,Wunderground v.1.15,2013-03-11 16:05:00,
2013-03-11 12:10:00,47.8,37.0,30.18,ESE,119,0.0,0.0,66,0.00,,,0.00,Wunderground v.1.15,2013-03-11 16:10:00,
2013-03-11 12:15:00,48.1,37.3,30.18,ESE,119,0.0,0.0,66,0.00,,,0.00,Wunderground v.1.15,2013-03-11 16:15:00,
2013-03-11 12:20:00,48.5,37.3,30.18,ESE,119,0.0,2.0,65,0.00,,,0.00,Wunderground v.1.15,2013-03-11 16:20:00,
2013-03-11 12:25:00,48.6,37.0,30.18,ESE,119,0.0,2.0,64,0.00,,,0.00,Wunderground v.1.15,2013-03-11 16:25:00,
2013-03-11 12:30:00,48.9,36.9,30.18,ESE,118,0.0,0.0,63,0.00,,,0.00,Wunderground v.1.15,2013-03-11 16:30:00,
2013-03-11 12:40:00,49.0,36.1,30.18,SE,125,1.0,1.0,61,0.00,,,0.00,Wunderground v.1.15,2013-03-11 16:40:00,
2013-03-11 12:45:00,49.0,36.5,30.18,SE,126,1.0,1.0,62,0.00,,,0.00,Wunderground v.1.15,2013-03-11 16:45:00,
2013-03-11 12:55:00,49.3,36.4,30.17,SE,125,0.0,3.0,61,0.00,,,0.00,Wunderground v.1.15,2013-03-11 16:55:00,
2013-03-11 13:00:00,49.3,36.4,30.17,SE,126,1.0,3.0,61,0.00,,,0.00,Wunderground v.1.15,2013-03-11 17:00:00,
2013-03-11 13:05:00,49.3,36.4,30.17,ESE,123,1.0,3.0,61,0.00,,,0.00,Wunderground v.1.15,2013-03-11 17:05:00,
2013-03-11 13:10:00,49.7,36.8,30.17,SE,125,1.0,1.0,61,0.00,,,0.00,Wunderground v.1.15,2013-03-11 17:10:00,
2013-03-11 13:15:00,49.5,36.6,30.17,SE,128,1.0,1.0,61,0.00,,,0.00,Wunderground v.1.15,2013-03-11 17:15:00,
2013-03-11 13:20:00,49.4,36.5,30.17,SE,128,1.0,1.0,61,0.00,,,0.00,Wunderground v.1.15,2013-03-11 17:20:00,
2013-03-11 13:25:00,49.6,36.7,30.16,SE,128,0.0,1.0,61,0.00,,,0.00,Wunderground v.1.15,2013-03-11 17:25:00,
2013-03-11 13:30:00,50.1,37.2,30.16,SE,128,0.0,2.0,61,0.00,,,0.00,Wunderground v.1.15,2013-03-11 17:30:00,
2013-03-11 13:40:00,51.4,38.0,30.16,SE,128,0.0,0.0,60,0.00,,,0.00,Wunderground v.1.15,2013-03-11 17:40:00,
2013-03-11 13:45:00,51.8,37.9,30.16,SE,128,0.0,0.0,59,0.00,,,0.00,Wunderground v.1.15,2013-03-11 17:45:00,
2013-03-11 13:50:00,52.1,38.2,30.15,SE,128,0.0,0.0,59,0.00,,,0.00,Wunderground v.1.15,2013-03-11 17:50:00,
2013-03-11 14:00:00,52.5,37.7,30.15,SE,126,1.0,1.0,57,0.00,,,0.00,Wunderground v.1.15,2013-03-11 18:00:00,
2013-03-11 14:05:00,52.7,37.4,30.15,SE,126,0.0,1.0,56,0.00,,,0.00,Wunderground v.1.15,2013-03-11 18:05:00,
2013-03-11 14:15:00,52.8,37.5,30.14,SE,128,1.0,1.0,56,0.00,,,0.00,Wunderground v.1.15,2013-03-11 18:15:00,
2013-03-11 14:20:00,52.8,38.0,30.14,SE,128,0.0,0.0,57,0.00,,,0.00,Wunderground v.1.15,2013-03-11 18:20:00,
2013-03-11 14:25:00,52.8,38.4,30.13,SE,128,0.0,0.0,58,0.00,,,0.00,Wunderground v.1.15,2013-03-11 18:25:00,
2013-03-11 14:30:00,52.5,38.1,30.13,SE,129,1.0,1.0,58,0.00,,,0.00,Wunderground v.1.15,2013-03-11 18:30:00,
2013-03-11 14:35:00,52.2,38.3,30.13,ESE,115,1.0,1.0,59,0.00,,,0.00,Wunderground v.1.15,2013-03-11 18:35:00,
2013-03-11 14:45:00,51.2,40.6,30.13,SE,128,1.0,2.0,67,0.00,,,0.00,Wunderground v.1.15,2013-03-11 18:45:00,
2013-03-11 14:50:00,50.6,40.8,30.12,SE,128,1.0,1.0,69,0.00,,,0.00,Wunderground v.1.15,2013-03-11 18:50:00,
2013-03-11 14:55:00,50.3,40.9,30.12,SE,128,0.0,1.0,70,0.00,,,0.00,Wunderground v.1.15,2013-03-11 18:55:00,
2013-03-11 15:00:00,50.0,40.6,30.12,SE,132,1.0,1.0,70,0.00,,,0.00,Wunderground v.1.15,2013-03-11 19:00:00,
2013-03-11 15:10:00,49.8,40.0,30.12,SE,130,1.0,1.0,69,0.00,,,0.00,Wunderground v.1.15,2013-03-11 19:10:00,
2013-03-11 15:20:00,49.9,40.1,30.12,SE,129,0.0,0.0,69,0.00,,,0.00,Wunderground v.1.15,2013-03-11 19:20:00,
2013-03-11 15:25:00,50.1,40.3,30.12,SE,130,0.0,0.0,69,0.00,,,0.00,Wunderground v.1.15,2013-03-11 19:25:00,
2013-03-11 15:30:00,50.3,40.1,30.12,SE,130,0.0,0.0,68,0.00,,,0.00,Wunderground v.1.15,2013-03-11 19:30:00,
2013-03-11 15:35:00,50.2,40.0,30.12,SE,131,1.0,1.0,68,0.00,,,0.00,Wunderground v.1.15,2013-03-11 19:35:00,
2013-03-11 15:40:00,50.1,40.3,30.12,SE,130,1.0,2.0,69,0.00,,,0.00,Wunderground v.1.15,2013-03-11 19:40:00,
2013-03-11 15:45:00,50.2,40.4,30.12,SE,130,0.0,2.0,69,0.00,,,0.00,Wunderground v.1.15,2013-03-11 19:45:00,
2013-03-11 15:50:00,50.3,40.5,30.12,SE,130,0.0,0.0,69,0.00,,,0.00,Wunderground v.1.15,2013-03-11 19:50:00,
2013-03-11 15:55:00,50.3,40.5,30.12,SE,130,0.0,1.0,69,0.00,,,0.00,Wunderground v.1.15,2013-03-11 19:55:00,
2013-03-11 16:00:00,50.3,40.5,30.12,SE,130,0.0,0.0,69,0.00,,,0.00,Wunderground v.1.15,2013-03-11 20:00:00,
2013-03-11 16:10:00,50.1,40.3,30.12,SE,133,1.0,1.0,69,0.00,,,0.00,Wunderground v.1.15,2013-03-11 20:10:00,
2013-03-11 16:20:00,50.1,40.7,30.11,SE,133,1.0,1.0,70,0.00,,,0.00,Wunderground v.1.15,2013-03-11 20:20:00,
2013-03-11 16:25:00,49.9,40.5,30.11,SE,133,0.0,1.0,70,0.00,,,0.00,Wunderground v.1.15,2013-03-11 20:25:00,
2013-03-11 16:35:00,49.5,40.5,30.11,SE,130,1.0,1.0,71,0.00,,,0.00,Wunderground v.1.15,2013-03-11 20:35:00,
2013-03-11 16:40:00,49.2,40.6,30.11,SE,126,1.0,1.0,72,0.00,,,0.00,Wunderground v.1.15,2013-03-11 20:40:00,
2013-03-11 16:45:00,48.9,40.3,30.11,SE,126,1.0,1.0,72,0.00,,,0.00,Wunderground v.1.15,2013-03-11 20:45:00,
2013-03-11 16:50:00,48.8,40.5,30.11,SE,126,0.0,0.0,73,0.00,,,0.00,Wunderground v.1.15,2013-03-11 20:50:00,
2013-03-11 16:55:00,48.6,40.3,30.10,SE,126,0.0,0.0,73,0.00,,,0.00,Wunderground v.1.15,2013-03-11 20:55:00,
2013-03-11 17:00:00,48.5,40.6,30.10,SE,126,0.0,0.0,74,0.00,,,0.00,Wunderground v.1.15,2013-03-11 21:00:00,
2013-03-11 17:10:00,48.2,40.6,30.10,East,96,1.0,1.0,75,0.00,,,0.00,Wunderground v.1.15,2013-03-11 21:10:00,
2013-03-11 17:20:00,47.9,40.4,30.11,East,101,0.0,0.0,75,0.00,,,0.00,Wunderground v.1.15,2013-03-11 21:20:00,
2013-03-11 17:30:00,47.7,40.5,30.11,East,101,0.0,0.0,76,0.00,,,0.00,Wunderground v.1.15,2013-03-11 21:30:00,
2013-03-11 17:35:00,47.7,40.8,30.11,East,101,0.0,1.0,77,0.00,,,0.00,Wunderground v.1.15,2013-03-11 21:35:00,
2013-03-11 17:40:00,47.6,40.7,30.11,East,101,1.0,1.0,77,0.00,,,0.00,Wunderground v.1.15,2013-03-11 21:40:00,
2013-03-11 17:45:00,47.5,40.6,30.11,East,101,1.0,1.0,77,0.00,,,0.00,Wunderground v.1.15,2013-03-11 21:45:00,
2013-03-11 17:55:00,47.4,40.9,30.11,East,101,0.0,0.0,78,0.00,,,0.00,Wunderground v.1.15,2013-03-11 21:55:00,
2013-03-11 18:00:00,47.3,40.8,30.11,ESE,105,0.0,0.0,78,0.00,,,0.00,Wunderground v.1.15,2013-03-11 22:00:00,
2013-03-11 18:05:00,47.2,40.7,30.11,ESE,105,0.0,0.0,78,0.00,,,0.00,Wunderground v.1.15,2013-03-11 22:05:00,
2013-03-11 18:10:00,47.1,40.6,30.11,ESE,116,0.0,0.0,78,0.00,,,0.00,Wunderground v.1.15,2013-03-11 22:10:00,
2013-03-11 18:20:00,46.9,40.7,30.11,ESE,115,0.0,0.0,79,0.00,,,0.00,Wunderground v.1.15,2013-03-11 22:20:00,
2013-03-11 18:25:00,46.8,40.6,30.11,ESE,116,0.0,0.0,79,0.00,,,0.00,Wunderground v.1.15,2013-03-11 22:25:00,
2013-03-11 18:35:00,46.4,40.6,30.11,ESE,116,0.0,0.0,80,0.00,,,0.00,Wunderground v.1.15,2013-03-11 22:35:00,
2013-03-11 18:40:00,46.2,40.4,30.11,ESE,116,0.0,0.0,80,0.00,,,0.00,Wunderground v.1.15,2013-03-11 22:40:00,
2013-03-11 18:45:00,46.1,40.6,30.11,ESE,116,0.0,0.0,81,0.00,,,0.00,Wunderground v.1.15,2013-03-11 22:45:00,
2013-03-11 18:55:00,45.9,40.4,30.10,ESE,116,0.0,1.0,81,0.00,,,0.00,Wunderground v.1.15,2013-03-11 22:55:00,
2013-03-11 19:00:00,45.8,40.3,30.10,ESE,116,0.0,0.0,81,0.00,,,0.00,Wunderground v.1.15,2013-03-11 23:00:00,
2013-03-11 19:10:00,45.5,40.0,30.10,ESE,117,0.0,0.0,81,0.00,,,0.00,Wunderground v.1.15,2013-03-11 23:10:00,
2013-03-11 19:15:00,45.4,39.9,30.11,ESE,115,0.0,2.0,81,0.00,,,0.00,Wunderground v.1.15,2013-03-11 23:15:00,
2013-03-11 19:20:00,45.4,39.9,30.11,ESE,116,1.0,1.0,81,0.00,,,0.00,Wunderground v.1.15,2013-03-11 23:20:00,
2013-03-11 19:25:00,45.3,39.8,30.11,ESE,115,1.0,1.0,81,0.00,,,0.00,Wunderground v.1.15,2013-03-11 23:25:00,
2013-03-11 19:30:00,45.1,39.6,30.11,ESE,116,0.0,0.0,81,0.00,,,0.00,Wunderground v.1.15,2013-03-11 23:30:00,
2013-03-11 19:35:00,45.0,39.8,30.11,ESE,117,0.0,0.0,82,0.00,,,0.00,Wunderground v.1.15,2013-03-11 23:35:00,
2013-03-11 19:45:00,44.7,39.9,30.10,ESE,117,1.0,1.0,83,0.00,,,0.00,Wunderground v.1.15,2013-03-11 23:45:00,
2013-03-11 19:50:00,44.6,40.1,30.11,ESE,116,1.0,1.0,84,0.00,,,0.00,Wunderground v.1.15,2013-03-11 23:50:00,
2013-03-11 19:55:00,44.4,39.9,30.11,ESE,115,0.0,1.0,84,0.00,,,0.00,Wunderground v.1.15,2013-03-11 23:55:00,
2013-03-11 20:00:00,44.2,40.0,30.11,ESE,116,0.0,0.0,85,0.00,,,0.00,Wunderground v.1.15,2013-03-12 00:00:00,
2013-03-11 20:05:00,44.1,39.9,30.11,ESE,116,0.0,0.0,85,0.00,,,0.00,Wunderground v.1.15,2013-03-12 00:05:00,
2013-03-11 20:15:00,43.7,39.8,30.11,ESE,116,0.0,0.0,86,0.00,,,0.00,Wunderground v.1.15,2013-03-12 00:15:00,
2013-03-11 20:20:00,43.6,40.0,30.11,ESE,115,0.0,1.0,87,0.00,,,0.00,Wunderground v.1.15,2013-03-12 00:20:00,
2013-03-11 20:25:00,43.6,40.0,30.12,ESE,116,0.0,1.0,87,0.00,,,0.00,Wunderground v.1.15,2013-03-12 00:25:00,
2013-03-11 20:30:00,43.6,40.0,30.12,ESE,115,0.0,1.0,87,0.00,,,0.00,Wunderground v.1.15,2013-03-12 00:30:00,
2013-03-11 20:35:00,43.5,39.9,30.12,ESE,116,0.0,1.0,87,0.00,,,0.00,Wunderground v.1.15,2013-03-12 00:35:00,
2013-03-11 20:40:00,43.4,40.1,30.12,ESE,115,0.0,0.0,88,0.00,,,0.00,Wunderground v.1.15,2013-03-12 00:40:00,
2013-03-11 20:45:00,43.4,40.1,30.11,ESE,115,0.0,0.0,88,0.00,,,0.00,Wunderground v.1.15,2013-03-12 00:45:00,
2013-03-11 20:55:00,43.3,40.3,30.10,SE,128,0.0,0.0,89,0.00,,,0.00,Wunderground v.1.15,2013-03-12 00:55:00,
2013-03-11 21:00:00,43.2,40.2,30.10,SE,128,0.0,0.0,89,0.00,,,0.00,Wunderground v.1.15,2013-03-12 01:00:00,
2013-03-11 21:05:00,43.2,40.2,30.11,SE,128,0.0,1.0,89,0.00,,,0.00,Wunderground v.1.15,2013-03-12 01:05:00,
2013-03-11 21:15:00,43.3,40.6,30.11,SE,128,0.0,1.0,90,0.00,,,0.00,Wunderground v.1.15,2013-03-12 01:15:00,
2013-03-11 21:20:00,43.2,40.5,30.11,SE,128,0.0,0.0,90,0.00,,,0.00,Wunderground v.1.15,2013-03-12 01:20:00,
2013-03-11 21:25:00,43.1,40.4,30.11,SE,128,0.0,2.0,90,0.00,,,0.00,Wunderground v.1.15,2013-03-12 01:25:00,
2013-03-11 21:30:00,43.2,40.8,30.11,SE,128,0.0,0.0,91,0.00,,,0.00,Wunderground v.1.15,2013-03-12 01:30:00,
2013-03-11 21:35:00,43.1,40.4,30.10,SE,128,0.0,3.0,90,0.00,,,0.00,Wunderground v.1.15,2013-03-12 01:35:00,
2013-03-11 21:40:00,43.1,40.7,30.10,SE,128,0.0,0.0,91,0.00,,,0.00,Wunderground v.1.15,2013-03-12 01:40:00,
2013-03-11 21:45:00,42.9,40.5,30.10,SE,128,0.0,0.0,91,0.00,,,0.00,Wunderground v.1.15,2013-03-12 01:45:00,
2013-03-11 21:50:00,42.7,40.3,30.10,SE,128,0.0,0.0,91,0.00,,,0.00,Wunderground v.1.15,2013-03-12 01:50:00,
2013-03-11 21:55:00,42.5,40.1,30.10,SE,128,0.0,0.0,91,0.00,,,0.00,Wunderground v.1.15,2013-03-12 01:55:00,
2013-03-11 22:05:00,42.2,39.8,30.10,SE,128,0.0,0.0,91,0.00,,,0.00,Wunderground v.1.15,2013-03-12 02:05:00,
2013-03-11 22:10:00,42.0,39.8,30.10,SE,128,0.0,0.0,92,0.00,,,0.00,Wunderground v.1.15,2013-03-12 02:10:00,
2013-03-11 22:15:00,41.9,39.7,30.10,SE,128,0.0,0.0,92,0.00,,,0.00,Wunderground v.1.15,2013-03-12 02:15:00,
2013-03-11 22:25:00,41.7,39.8,30.10,SE,128,0.0,0.0,93,0.00,,,0.00,Wunderground v.1.15,2013-03-12 02:25:00,
2013-03-11 22:30:00,41.8,39.9,30.10,SE,128,0.0,0.0,93,0.00,,,0.00,Wunderground v.1.15,2013-03-12 02:30:00,
2013-03-11 22:35:00,41.7,39.8,30.10,SE,128,0.0,0.0,93,0.00,,,0.00,Wunderground v.1.15,2013-03-12 02:35:00,
2013-03-11 22:40:00,41.7,39.8,30.10,SE,128,0.0,0.0,93,0.00,,,0.00,Wunderground v.1.15,2013-03-12 02:40:00,
2013-03-11 22:45:00,41.7,39.8,30.10,SE,128,0.0,0.0,93,0.00,,,0.00,Wunderground v.1.15,2013-03-12 02:45:00,
2013-03-11 22:50:00,41.7,39.8,30.10,SE,128,0.0,0.0,93,0.00,,,0.00,Wunderground v.1.15,2013-03-12 02:50:00,
2013-03-11 22:55:00,41.7,39.8,30.10,SE,128,0.0,0.0,93,0.00,,,0.00,Wunderground v.1.15,2013-03-12 02:55:00,
2013-03-11 23:00:00,41.6,40.0,30.09,SE,128,0.0,0.0,94,0.00,,,0.00,Wunderground v.1.15,2013-03-12 03:00:00,
2013-03-11 23:05:00,41.6,40.0,30.10,SE,128,0.0,0.0,94,0.00,,,0.00,Wunderground v.1.15,2013-03-12 03:05:00,
2013-03-11 23:15:00,41.5,39.9,30.10,SE,128,0.0,0.0,94,0.00,,,0.00,Wunderground v.1.15,2013-03-12 03:15:00,
2013-03-11 23:20:00,41.5,39.9,30.10,SE,128,0.0,0.0,94,0.00,,,0.00,Wunderground v.1.15,2013-03-12 03:20:00,
2013-03-11 23:25:00,41.6,40.0,30.10,SE,128,0.0,0.0,94,0.00,,,0.00,Wunderground v.1.15,2013-03-12 03:25:00,
2013-03-11 23:35:00,41.5,39.9,30.10,SE,128,0.0,0.0,94,0.00,,,0.00,Wunderground v.1.15,2013-03-12 03:35:00,
2013-03-11 23:40:00,41.5,39.9,30.10,SE,128,0.0,0.0,94,0.00,,,0.00,Wunderground v.1.15,2013-03-12 03:40:00,
2013-03-11 23:45:00,41.6,40.0,30.10,SE,128,0.0,0.0,94,0.00,,,0.00,Wunderground v.1.15,2013-03-12 03:45:00,
2013-03-11 23:50:00,41.5,39.9,30.10,SE,128,0.0,0.0,94,0.00,,,0.00,Wunderground v.1.15,2013-03-12 03:50:00,
2013-03-11 23:55:00,41.5,39.9,30.11,SE,128,0.0,0.0,94,0.00,,,0.00,Wunderground v.1.15,2013-03-12 03:55:00,